createdAt,value
2023-08-09T00:00:24.479Z,15.53
2023-08-09T00:02:52.447Z,15.50
2023-08-09T00:05:20.429Z,15.46
2023-08-09T00:07:48.274Z,15.47
2023-08-09T00:10:16.258Z,15.48
2023-08-09T00:12:45.514Z,15.53
2023-08-09T00:15:13.498Z,15.41
2023-08-09T00:17:41.633Z,15.40
2023-08-09T00:20:10.478Z,15.42
2023-08-09T00:22:38.362Z,15.47
2023-08-09T00:25:07.548Z,15.49
2023-08-09T00:27:35.525Z,15.51
2023-08-09T00:30:05.564Z,15.53
2023-08-09T00:32:34.051Z,15.46
2023-08-09T00:35:02.023Z,15.51
2023-08-09T00:37:29.847Z,15.43
2023-08-09T00:39:57.927Z,15.48
2023-08-09T00:42:27.744Z,15.39
2023-08-09T00:44:55.639Z,15.44
2023-08-09T00:47:25.019Z,15.42
2023-08-09T00:49:54.077Z,15.44
2023-08-09T00:52:22.147Z,15.44
2023-08-09T00:54:50.310Z,15.44
2023-08-09T00:57:18.282Z,15.49
2023-08-09T00:59:46.366Z,15.50
2023-08-09T01:02:14.322Z,15.49
2023-08-09T01:04:43.876Z,15.54
2023-08-09T01:07:17.619Z,15.50
2023-08-09T01:09:51.909Z,15.50
2023-08-09T01:12:26.803Z,15.34
2023-08-09T01:14:56.187Z,15.40
2023-08-09T01:17:29.154Z,15.38
2023-08-09T01:20:00.416Z,15.36
2023-08-09T01:22:32.869Z,15.31
2023-08-09T01:25:04.671Z,15.29
2023-08-09T01:27:33.053Z,15.29
2023-08-09T01:30:02.229Z,15.32
2023-08-09T01:32:31.224Z,15.25
2023-08-09T01:35:01.524Z,15.31
2023-08-09T01:37:33.660Z,15.32
2023-08-09T01:40:09.385Z,15.28
2023-08-09T01:42:38.371Z,15.30
2023-08-09T01:45:09.103Z,15.35
2023-08-09T01:47:37.623Z,15.35
2023-08-09T01:50:06.550Z,15.33
2023-08-09T01:52:34.644Z,15.33
2023-08-09T01:55:04.134Z,15.37
2023-08-09T01:57:32.016Z,15.31
2023-08-09T02:00:00.250Z,15.36
2023-08-09T02:02:28.303Z,15.39
2023-08-09T02:04:56.951Z,15.39
2023-08-09T02:07:24.776Z,15.33
2023-08-09T02:09:52.656Z,15.33
2023-08-09T02:12:21.891Z,15.36
2023-08-09T02:14:50.448Z,15.28
2023-08-09T02:17:18.581Z,15.32
2023-08-09T02:19:46.462Z,15.34
2023-08-09T02:22:14.374Z,15.23
2023-08-09T02:24:42.249Z,15.24
2023-08-09T02:27:10.843Z,15.19
2023-08-09T02:29:40.182Z,15.21
2023-08-09T02:32:08.739Z,15.25
2023-08-09T02:34:36.636Z,15.28
2023-08-09T02:37:05.182Z,15.27
2023-08-09T02:39:34.117Z,15.29
2023-08-09T02:42:01.986Z,15.21
2023-08-09T02:44:33.745Z,15.14
2023-08-09T02:47:04.486Z,14.94
2023-08-09T02:49:33.931Z,14.93
2023-08-09T02:52:01.848Z,14.71
2023-08-09T02:54:29.955Z,14.75
2023-08-09T02:56:57.816Z,14.64
2023-08-09T02:59:25.629Z,14.73
2023-08-09T03:01:53.870Z,14.65
2023-08-09T03:04:23.312Z,14.66
2023-08-09T03:06:51.239Z,14.67
2023-08-09T03:09:19.510Z,14.63
2023-08-09T03:11:47.393Z,14.63
2023-08-09T03:14:15.636Z,14.58
2023-08-09T03:16:43.911Z,14.46
2023-08-09T03:19:12.681Z,14.42
2023-08-09T03:21:42.896Z,14.48
2023-08-09T03:24:11.260Z,14.42
2023-08-09T03:26:41.338Z,14.38
2023-08-09T03:29:09.172Z,14.40
2023-08-09T03:31:37.864Z,14.32
2023-08-09T03:34:11.497Z,14.31
2023-08-09T03:36:39.391Z,14.22
2023-08-09T03:39:08.755Z,14.25
2023-08-09T03:41:36.729Z,14.28
2023-08-09T03:44:04.894Z,14.20
2023-08-09T03:46:33.550Z,14.22
2023-08-09T03:49:02.436Z,14.23
2023-08-09T03:51:31.216Z,14.29
2023-08-09T03:53:59.300Z,14.28
2023-08-09T03:56:28.552Z,14.28
2023-08-09T03:58:56.440Z,14.31
2023-08-09T04:01:24.400Z,14.33
2023-08-09T04:03:52.370Z,14.35
2023-08-09T04:06:20.997Z,14.37
2023-08-09T04:08:48.945Z,14.43
2023-08-09T04:11:16.780Z,14.43
2023-08-09T04:13:46.133Z,14.45
2023-08-09T04:16:14.113Z,14.47
2023-08-09T04:18:42.614Z,14.49
2023-08-09T04:21:10.450Z,14.54
2023-08-09T04:23:39.724Z,14.58
2023-08-09T04:26:07.622Z,14.59
2023-08-09T04:28:35.485Z,14.62
2023-08-09T04:31:05.376Z,14.65
2023-08-09T04:33:33.654Z,14.62
2023-08-09T04:36:01.590Z,14.53
2023-08-09T04:38:29.963Z,14.44
2023-08-09T04:40:58.455Z,14.52
2023-08-09T04:43:26.304Z,14.58
2023-08-09T04:45:54.807Z,14.55
2023-08-09T04:48:24.849Z,14.59
2023-08-09T04:50:55.030Z,14.67
2023-08-09T04:53:23.020Z,14.73
2023-08-09T04:55:51.222Z,14.73
2023-08-09T04:58:19.402Z,14.79
2023-08-09T05:00:47.228Z,14.86
2023-08-09T05:03:15.148Z,14.74
2023-08-09T05:05:44.616Z,14.90
2023-08-09T05:08:12.461Z,15.03
2023-08-09T05:10:40.791Z,15.05
2023-08-09T05:13:08.759Z,15.05
2023-08-09T05:15:36.643Z,15.03
2023-08-09T05:18:05.809Z,15.11
2023-08-09T05:20:33.741Z,15.23
2023-08-09T05:23:02.917Z,15.18
2023-08-09T05:25:31.035Z,15.16
2023-08-09T05:27:58.925Z,15.31
2023-08-09T05:30:26.865Z,15.38
2023-08-09T05:32:54.837Z,15.51
2023-08-09T05:35:22.863Z,15.63
2023-08-09T05:37:50.744Z,15.58
2023-08-09T05:40:20.178Z,15.64
2023-08-09T05:42:48.016Z,16.01
2023-08-09T05:45:15.956Z,16.09
2023-08-09T05:47:43.867Z,15.91
2023-08-09T05:50:11.989Z,16.17
2023-08-09T05:52:39.875Z,16.96
2023-08-09T05:55:09.184Z,17.58
2023-08-09T05:57:38.376Z,17.28
2023-08-09T06:00:12.403Z,17.71
2023-08-09T06:02:40.378Z,17.63
2023-08-09T06:05:09.337Z,17.69
2023-08-09T06:07:37.278Z,17.36
2023-08-09T06:10:05.638Z,17.20
2023-08-09T06:12:33.567Z,16.99
2023-08-09T06:15:02.792Z,16.90
2023-08-09T06:17:30.722Z,16.93
2023-08-09T06:19:58.865Z,17.22
2023-08-09T06:22:26.857Z,17.36
2023-08-09T06:24:54.881Z,17.52
2023-08-09T06:27:22.721Z,17.55
2023-08-09T06:29:50.696Z,17.72
2023-08-09T06:32:20.993Z,17.48
2023-08-09T06:34:50.986Z,17.64
2023-08-09T06:37:18.817Z,17.66
2023-08-09T06:39:46.670Z,17.83
2023-08-09T06:42:14.929Z,18.22
2023-08-09T06:44:45.674Z,18.43
2023-08-09T06:47:13.641Z,18.77
2023-08-09T06:49:42.845Z,18.40
2023-08-09T06:52:10.884Z,18.43
2023-08-09T06:54:38.728Z,18.63
2023-08-09T06:57:06.901Z,18.85
2023-08-09T06:59:35.191Z,19.09
2023-08-09T07:02:03.369Z,19.20
2023-08-09T07:04:31.367Z,20.90
2023-08-09T07:07:00.837Z,21.51
2023-08-09T07:09:28.880Z,20.92
2023-08-09T07:11:56.721Z,20.86
2023-08-09T07:14:24.537Z,21.81
2023-08-09T07:16:52.348Z,21.20
2023-08-09T07:19:20.199Z,21.40
2023-08-09T07:21:48.511Z,21.89
2023-08-09T07:24:17.815Z,21.57
2023-08-09T07:26:45.760Z,22.54
2023-08-09T07:29:13.612Z,23.10
2023-08-09T07:31:41.700Z,22.76
2023-08-09T07:34:09.603Z,22.85
2023-08-09T07:36:37.496Z,23.24
2023-08-09T07:39:05.631Z,23.60
2023-08-09T07:41:34.919Z,24.05
2023-08-09T07:44:02.947Z,23.84
2023-08-09T07:46:32.416Z,23.60
2023-08-09T07:49:01.877Z,24.30
2023-08-09T07:51:29.756Z,24.02
2023-08-09T07:53:57.599Z,24.56
2023-08-09T07:56:26.098Z,24.15
2023-08-09T07:58:55.299Z,25.00
2023-08-09T08:01:23.714Z,26.10
2023-08-09T08:03:51.633Z,26.24
2023-08-09T08:06:19.606Z,25.92
2023-08-09T08:08:47.594Z,25.66
2023-08-09T08:11:15.504Z,25.26
2023-08-09T08:13:43.505Z,26.86
2023-08-09T08:16:12.915Z,26.87
2023-08-09T08:18:40.893Z,25.41
2023-08-09T08:21:09.995Z,24.05
2023-08-09T08:23:38.041Z,25.45
2023-08-09T08:26:06.396Z,25.88
2023-08-09T08:28:34.217Z,26.95
2023-08-09T08:31:06.095Z,25.62
2023-08-09T08:33:35.333Z,26.01
2023-08-09T08:36:20.796Z,26.90
2023-08-09T08:38:51.997Z,26.56
2023-08-09T08:41:20.004Z,27.17
2023-08-09T08:43:49.047Z,27.41
2023-08-09T08:46:18.099Z,27.72
2023-08-09T08:48:50.429Z,27.23
2023-08-09T08:51:19.638Z,27.62
2023-08-09T08:53:48.110Z,26.46
2023-08-09T08:56:16.623Z,26.66
2023-08-09T08:58:44.845Z,26.98
2023-08-09T09:01:14.130Z,27.18
2023-08-09T09:03:42.194Z,27.38
2023-08-09T09:06:11.992Z,28.41
2023-08-09T09:08:43.001Z,29.02
2023-08-09T09:11:16.814Z,29.04
2023-08-09T09:13:44.754Z,28.53
2023-08-09T09:16:13.397Z,27.83
2023-08-09T09:18:46.181Z,26.92
2023-08-09T09:21:16.077Z,25.57
2023-08-09T09:23:44.123Z,24.44
2023-08-09T09:26:13.523Z,24.31
2023-08-09T09:28:42.525Z,25.24
2023-08-09T09:31:11.642Z,26.33
2023-08-09T09:33:40.997Z,25.36
2023-08-09T09:36:13.068Z,24.74
2023-08-09T09:38:42.848Z,24.10
2023-08-09T09:41:11.292Z,23.44
2023-08-09T09:43:42.713Z,23.94
2023-08-09T09:46:34.166Z,23.35
2023-08-09T09:49:06.436Z,23.11
2023-08-09T09:51:36.705Z,25.01
2023-08-09T09:54:07.825Z,26.33
2023-08-09T09:56:36.893Z,27.09
2023-08-09T09:59:05.533Z,28.26
2023-08-09T10:01:36.522Z,28.11
2023-08-09T10:04:08.803Z,27.63
2023-08-09T10:06:43.456Z,27.35
2023-08-09T10:09:14.423Z,28.52
2023-08-09T10:11:45.456Z,29.54
2023-08-09T10:14:16.334Z,28.32
2023-08-09T10:16:46.550Z,30.09
2023-08-09T10:19:19.352Z,30.05
2023-08-09T10:21:47.618Z,30.04
2023-08-09T10:24:19.731Z,29.18
2023-08-09T10:26:50.639Z,28.75
2023-08-09T10:29:22.502Z,27.82
2023-08-09T10:31:54.319Z,29.04
2023-08-09T10:34:24.150Z,29.30
2023-08-09T10:36:55.593Z,29.59
2023-08-09T10:39:25.610Z,28.73
2023-08-09T10:42:03.346Z,28.07
2023-08-09T10:44:42.819Z,27.67
2023-08-09T10:47:13.888Z,27.11
2023-08-09T10:50:01.395Z,27.13
2023-08-09T10:52:37.354Z,28.64
2023-08-09T10:55:40.007Z,29.04
2023-08-09T10:58:16.077Z,28.76
2023-08-09T11:00:44.671Z,28.35
2023-08-09T11:03:13.584Z,28.47
2023-08-09T11:05:41.670Z,26.87
2023-08-09T11:08:17.473Z,26.75
2023-08-09T11:10:47.520Z,27.27
2023-08-09T11:13:17.185Z,27.46
2023-08-09T11:15:46.519Z,27.04
2023-08-09T11:18:14.574Z,27.16
2023-08-09T11:20:42.596Z,26.65
2023-08-09T11:23:12.750Z,26.63
2023-08-09T11:25:41.302Z,26.71
2023-08-09T11:28:15.783Z,26.74
2023-08-09T11:30:44.229Z,25.88
2023-08-09T11:33:12.999Z,25.73
2023-08-09T11:35:45.150Z,26.71
2023-08-09T11:38:15.165Z,25.93
2023-08-09T11:40:44.816Z,26.72
2023-08-09T11:43:16.504Z,26.90
2023-08-09T11:45:51.233Z,26.72
2023-08-09T11:48:31.390Z,26.57
2023-08-09T11:51:03.537Z,27.32
2023-08-09T11:53:31.570Z,26.37
2023-08-09T11:56:02.884Z,27.01
2023-08-09T11:58:35.030Z,27.29
2023-08-09T12:01:14.069Z,27.55
2023-08-09T12:03:42.723Z,27.16
2023-08-09T12:06:11.345Z,27.86
2023-08-09T12:08:39.885Z,26.95
2023-08-09T12:11:07.975Z,27.60
2023-08-09T12:13:37.341Z,27.59
2023-08-09T12:16:08.095Z,27.80
2023-08-09T12:18:37.578Z,27.25
2023-08-09T12:21:08.106Z,26.68
2023-08-09T12:23:39.490Z,25.58
2023-08-09T12:26:08.892Z,25.29
2023-08-09T12:28:40.209Z,25.16
2023-08-09T12:31:09.765Z,26.33
2023-08-09T12:33:37.650Z,27.30
2023-08-09T12:36:05.868Z,27.46
2023-08-09T12:38:33.778Z,27.41
2023-08-09T12:41:01.712Z,27.33
2023-08-09T12:43:29.592Z,27.54
2023-08-09T12:46:00.734Z,27.53
2023-08-09T12:48:28.716Z,27.78
2023-08-09T12:50:56.616Z,27.76
2023-08-09T12:53:24.534Z,27.57
2023-08-09T12:55:52.493Z,27.11
2023-08-09T12:58:20.518Z,26.57
2023-08-09T13:00:48.398Z,26.44
2023-08-09T13:03:17.870Z,26.48
2023-08-09T13:05:45.857Z,26.08
2023-08-09T13:08:14.053Z,26.19
2023-08-09T13:10:44.739Z,26.03
2023-08-09T13:13:12.570Z,26.08
2023-08-09T13:15:40.589Z,26.26
2023-08-09T13:18:08.578Z,26.62
2023-08-09T13:20:37.965Z,26.34
2023-08-09T13:23:08.523Z,26.82
2023-08-09T13:25:36.488Z,27.36
2023-08-09T13:28:05.427Z,27.63
2023-08-09T13:30:34.010Z,28.11
2023-08-09T13:33:01.919Z,28.46
2023-08-09T13:35:30.495Z,29.06
2023-08-09T13:37:59.724Z,29.56
2023-08-09T13:40:27.592Z,27.40
2023-08-09T13:42:54.648Z,27.92
2023-08-09T13:45:22.506Z,28.59
2023-08-09T13:47:50.453Z,27.30
2023-08-09T13:50:18.594Z,28.39
2023-08-09T13:52:46.512Z,28.67
2023-08-09T13:55:15.766Z,28.46
2023-08-09T13:57:43.614Z,28.71
2023-08-09T14:00:15.527Z,28.10
2023-08-09T14:02:43.651Z,28.45
2023-08-09T14:05:12.361Z,27.44
2023-08-09T14:07:40.378Z,27.32
2023-08-09T14:10:09.301Z,27.90
2023-08-09T14:12:39.577Z,27.05
2023-08-09T14:15:09.318Z,27.32
2023-08-09T14:17:37.247Z,26.35
2023-08-09T14:20:06.953Z,26.19
2023-08-09T14:22:35.090Z,27.20
2023-08-09T14:25:03.087Z,26.92
2023-08-09T14:27:31.296Z,26.70
2023-08-09T14:30:00.530Z,26.04
2023-08-09T14:32:28.864Z,25.90
2023-08-09T14:34:56.727Z,25.81
2023-08-09T14:37:24.670Z,25.48
2023-08-09T14:39:52.750Z,25.13
2023-08-09T14:42:20.641Z,24.96
2023-08-09T14:44:48.873Z,25.04
2023-08-09T14:47:18.130Z,24.67
2023-08-09T14:49:47.086Z,24.58
2023-08-09T14:52:15.024Z,24.63
2023-08-09T14:54:42.946Z,24.66
2023-08-09T14:57:10.845Z,24.59
2023-08-09T14:59:38.795Z,24.17
2023-08-09T15:02:06.665Z,24.38
2023-08-09T15:04:38.077Z,24.47
2023-08-09T15:07:06.186Z,24.35
2023-08-09T15:09:34.704Z,24.41
2023-08-09T15:12:02.680Z,24.42
2023-08-09T15:14:30.632Z,24.32
2023-08-09T15:17:03.427Z,24.24
2023-08-09T15:19:39.238Z,23.83
2023-08-09T15:22:07.182Z,24.10
2023-08-09T15:24:35.140Z,24.11
2023-08-09T15:27:03.455Z,24.41
2023-08-09T15:29:31.541Z,24.11
2023-08-09T15:31:59.768Z,23.87
2023-08-09T15:34:27.669Z,23.73
2023-08-09T15:36:56.891Z,23.64
2023-08-09T15:39:24.770Z,23.79
2023-08-09T15:41:55.454Z,23.81
2023-08-09T15:44:28.327Z,23.77
2023-08-09T15:46:56.388Z,23.86
2023-08-09T15:49:24.384Z,24.07
2023-08-09T15:51:52.262Z,24.09
2023-08-09T15:54:21.465Z,24.07
2023-08-09T15:56:49.342Z,24.08
2023-08-09T15:59:17.324Z,24.03
2023-08-09T16:01:46.411Z,24.08
2023-08-09T16:04:14.411Z,23.92
2023-08-09T16:06:42.481Z,23.75
2023-08-09T16:09:15.634Z,23.61
2023-08-09T16:11:46.863Z,23.76
2023-08-09T16:14:14.936Z,23.66
2023-08-09T16:16:42.917Z,23.69
2023-08-09T16:19:10.830Z,23.63
2023-08-09T16:21:38.783Z,23.66
2023-08-09T16:24:06.993Z,23.60
2023-08-09T16:26:36.991Z,23.50
2023-08-09T16:29:07.096Z,23.62
2023-08-09T16:31:35.620Z,23.40
2023-08-09T16:34:03.568Z,23.11
2023-08-09T16:36:31.513Z,23.29
2023-08-09T16:38:59.486Z,23.19
2023-08-09T16:41:27.348Z,23.08
2023-08-09T16:43:56.094Z,22.97
2023-08-09T16:46:25.534Z,23.00
2023-08-09T16:48:54.157Z,23.00
2023-08-09T16:51:22.190Z,23.08
2023-08-09T16:53:50.242Z,22.98
2023-08-09T16:56:18.147Z,22.98
2023-08-09T16:58:46.044Z,22.87
2023-08-09T17:01:18.066Z,22.87
2023-08-09T17:03:48.025Z,22.87
2023-08-09T17:06:16.503Z,22.94
2023-08-09T17:08:44.740Z,22.87
2023-08-09T17:11:14.228Z,22.71
2023-08-09T17:13:42.156Z,22.66
2023-08-09T17:16:11.616Z,22.65
2023-08-09T17:18:40.139Z,22.51
2023-08-09T17:21:09.829Z,22.76
2023-08-09T17:23:39.831Z,22.70
2023-08-09T17:26:08.249Z,22.42
2023-08-09T17:28:36.421Z,22.61
2023-08-09T17:31:04.367Z,22.50
2023-08-09T17:33:33.400Z,22.38
2023-08-09T17:36:03.876Z,22.32
2023-08-09T17:38:33.484Z,22.25
2023-08-09T17:41:01.385Z,22.35
2023-08-09T17:43:30.586Z,22.22
2023-08-09T17:45:58.541Z,22.17
2023-08-09T17:48:26.768Z,22.29
2023-08-09T17:50:54.692Z,22.18
2023-08-09T17:53:22.479Z,22.18
2023-08-09T17:55:51.705Z,22.09
2023-08-09T17:58:19.817Z,22.12
2023-08-09T18:00:48.186Z,22.06
2023-08-09T18:03:16.090Z,21.97
2023-08-09T18:05:44.160Z,21.88
2023-08-09T18:08:12.138Z,21.79
2023-08-09T18:10:40.871Z,21.68
2023-08-09T18:13:10.143Z,21.64
2023-08-09T18:15:38.501Z,21.66
2023-08-09T18:18:06.755Z,21.59
2023-08-09T18:20:34.781Z,21.56
2023-08-09T18:23:04.027Z,21.47
2023-08-09T18:25:32.069Z,21.54
2023-08-09T18:28:00.167Z,21.53
2023-08-09T18:30:29.546Z,21.34
2023-08-09T18:32:57.603Z,21.37
2023-08-09T18:35:25.529Z,21.26
2023-08-09T18:37:53.914Z,21.28
2023-08-09T18:40:22.622Z,21.21
2023-08-09T18:42:50.531Z,21.12
2023-08-09T18:45:18.566Z,21.08
2023-08-09T18:47:47.835Z,21.08
2023-08-09T18:50:15.782Z,21.09
2023-08-09T18:52:46.007Z,20.91
2023-08-09T18:55:17.518Z,20.96
2023-08-09T18:57:45.625Z,20.98
2023-08-09T19:00:15.915Z,20.71
2023-08-09T19:02:46.093Z,20.65
2023-08-09T19:05:15.817Z,20.66
2023-08-09T19:07:44.296Z,20.66
2023-08-09T19:10:12.341Z,20.59
2023-08-09T19:12:40.319Z,20.56
2023-08-09T19:15:09.545Z,20.46
2023-08-09T19:17:37.527Z,20.28
2023-08-09T19:20:06.228Z,20.21
2023-08-09T19:22:36.006Z,20.15
2023-08-09T19:25:04.759Z,20.16
2023-08-09T19:27:33.083Z,20.05
2023-08-09T19:30:01.578Z,20.05
2023-08-09T19:32:29.574Z,19.98
2023-08-09T19:34:57.442Z,19.95
2023-08-09T19:37:25.571Z,19.92
2023-08-09T19:39:54.935Z,19.86
2023-08-09T19:42:22.976Z,19.90
2023-08-09T19:44:50.832Z,19.93
2023-08-09T19:47:18.662Z,19.88
2023-08-09T19:49:47.205Z,19.91
2023-08-09T19:52:15.255Z,19.86
2023-08-09T19:54:43.169Z,19.79
2023-08-09T19:57:13.315Z,19.84
2023-08-09T19:59:41.197Z,19.79
2023-08-09T20:02:09.213Z,19.75
2023-08-09T20:04:38.897Z,19.74
2023-08-09T20:07:07.328Z,19.57
2023-08-09T20:09:36.089Z,19.59
2023-08-09T20:12:04.802Z,19.49
2023-08-09T20:14:34.256Z,19.42
2023-08-09T20:17:03.004Z,19.34
2023-08-09T20:19:32.781Z,19.27
2023-08-09T20:22:00.655Z,19.21
2023-08-09T20:24:41.083Z,19.25
2023-08-09T20:27:09.843Z,19.12
2023-08-09T20:29:39.911Z,19.03
2023-08-09T20:32:08.577Z,18.99
2023-08-09T20:34:37.182Z,18.85
2023-08-09T20:37:05.933Z,18.77
2023-08-09T20:39:34.181Z,18.82
2023-08-09T20:42:02.507Z,18.71
2023-08-09T20:44:36.126Z,18.60
2023-08-09T20:47:07.172Z,18.49
2023-08-09T20:49:35.715Z,18.50
2023-08-09T20:52:04.948Z,18.42
2023-08-09T20:54:33.048Z,18.35
2023-08-09T20:57:01.116Z,18.31
2023-08-09T20:59:33.954Z,18.32
2023-08-09T21:02:02.278Z,18.28
2023-08-09T21:04:32.037Z,18.22
2023-08-09T21:07:00.112Z,18.19
2023-08-09T21:09:28.651Z,18.19
2023-08-09T21:11:56.566Z,18.17
2023-08-09T21:14:25.640Z,18.18
2023-08-09T21:16:53.710Z,18.14
2023-08-09T21:19:21.575Z,18.09
2023-08-09T21:21:50.869Z,18.03
2023-08-09T21:26:52.007Z,17.96
2023-08-09T21:29:22.230Z,17.99
2023-08-09T21:31:50.618Z,17.84
2023-08-09T21:34:18.810Z,17.71
2023-08-09T21:36:46.826Z,17.63
2023-08-09T21:39:16.094Z,17.49
2023-08-09T21:41:44.049Z,17.35
2023-08-09T21:44:11.988Z,17.38
2023-08-09T21:46:39.925Z,17.39
2023-08-09T21:49:08.165Z,17.34
2023-08-09T21:51:36.076Z,17.29
2023-08-09T21:54:04.129Z,17.24
2023-08-09T21:56:33.432Z,17.17
2023-08-09T21:59:01.394Z,17.08
2023-08-09T22:01:29.781Z,16.99
2023-08-09T22:03:57.604Z,16.87
2023-08-09T22:06:25.542Z,16.86
2023-08-09T22:08:53.447Z,16.86
2023-08-09T22:11:21.612Z,16.85
2023-08-09T22:13:51.127Z,16.79
2023-08-09T22:16:19.115Z,16.58
2023-08-09T22:18:47.139Z,16.53
2023-08-09T22:21:14.999Z,16.49
2023-08-09T22:23:43.359Z,16.38
2023-08-09T22:26:11.251Z,16.28
2023-08-09T22:28:39.142Z,16.25
2023-08-09T22:31:08.645Z,16.26
2023-08-09T22:33:36.595Z,16.26
2023-08-09T22:36:04.658Z,16.19
2023-08-09T22:38:32.537Z,16.13
2023-08-09T22:41:00.364Z,16.14
2023-08-09T22:43:28.553Z,16.16
2023-08-09T22:45:58.596Z,16.16
2023-08-09T22:48:27.887Z,16.14
2023-08-09T22:50:56.068Z,16.10
2023-08-09T22:53:25.688Z,16.12
2023-08-09T22:55:53.984Z,16.00
2023-08-09T22:58:22.795Z,15.98
2023-08-09T23:00:50.757Z,15.85
2023-08-09T23:03:20.565Z,15.74
2023-08-09T23:05:50.509Z,15.70
2023-08-09T23:08:19.472Z,15.71
2023-08-09T23:10:47.310Z,15.64
2023-08-09T23:13:15.175Z,15.63
2023-08-09T23:15:45.609Z,15.64
2023-08-09T23:18:14.530Z,15.59
2023-08-09T23:20:42.648Z,15.56
2023-08-09T23:23:12.562Z,15.53
2023-08-09T23:25:40.422Z,15.51
2023-08-09T23:28:08.319Z,15.50
2023-08-09T23:30:36.427Z,15.41
2023-08-09T23:33:06.283Z,15.32
2023-08-09T23:35:34.593Z,15.26
2023-08-09T23:38:02.475Z,15.20
2023-08-09T23:40:31.769Z,15.20
2023-08-09T23:42:59.893Z,15.06
2023-08-09T23:45:27.934Z,15.00
2023-08-09T23:47:55.987Z,15.08
2023-08-09T23:50:24.373Z,15.10
2023-08-09T23:52:52.312Z,15.11
2023-08-09T23:55:20.244Z,15.08
2023-08-09T23:57:49.570Z,15.01
